createdAt,value
2024-01-15T00:02:24.267Z,81.16
2024-01-15T00:04:52.485Z,81.39
2024-01-15T00:07:20.596Z,81.42
2024-01-15T00:09:48.706Z,81.71
2024-01-15T00:12:16.643Z,81.69
2024-01-15T00:14:44.594Z,81.67
2024-01-15T00:17:12.504Z,81.57
2024-01-15T00:19:41.430Z,81.44
2024-01-15T00:22:09.512Z,81.70
2024-01-15T00:24:37.310Z,81.64
2024-01-15T00:27:05.394Z,81.59
2024-01-15T00:29:33.183Z,81.25
2024-01-15T00:32:01.024Z,81.21
2024-01-15T00:34:29.080Z,81.32
2024-01-15T00:36:56.982Z,81.44
2024-01-15T00:39:24.944Z,81.30
2024-01-15T00:41:52.889Z,81.30
2024-01-15T00:44:20.870Z,81.33
2024-01-15T00:46:48.801Z,81.31
2024-01-15T00:49:17.488Z,81.27
2024-01-15T00:51:45.348Z,81.25
2024-01-15T00:54:13.300Z,81.41
2024-01-15T00:56:41.117Z,81.46
2024-01-15T00:59:11.684Z,81.89
2024-01-15T01:01:39.709Z,81.61
2024-01-15T01:04:07.698Z,81.67
2024-01-15T01:06:35.646Z,82.06
2024-01-15T01:09:03.572Z,82.47
2024-01-15T01:11:31.647Z,82.51
2024-01-15T01:13:59.707Z,82.70
2024-01-15T01:16:27.476Z,82.96
2024-01-15T01:18:55.657Z,82.97
2024-01-15T01:21:23.927Z,83.03
2024-01-15T01:23:51.910Z,83.12
2024-01-15T01:26:20.146Z,83.35
2024-01-15T01:28:47.952Z,83.45
2024-01-15T01:31:17.878Z,83.59
2024-01-15T01:33:45.953Z,83.57
2024-01-15T01:36:13.842Z,83.52
2024-01-15T01:38:42.632Z,83.61
2024-01-15T01:41:10.786Z,83.35
2024-01-15T01:43:38.636Z,83.51
2024-01-15T01:46:08.703Z,83.32
2024-01-15T01:48:38.273Z,83.23
2024-01-15T01:51:06.570Z,83.42
2024-01-15T01:53:38.114Z,83.36
2024-01-15T01:56:06.988Z,83.43
2024-01-15T01:58:35.744Z,83.94
2024-01-15T02:01:03.979Z,84.07
2024-01-15T02:03:33.093Z,84.73
2024-01-15T02:06:02.599Z,84.61
2024-01-15T02:08:31.567Z,85.07
2024-01-15T02:10:59.389Z,84.89
2024-01-15T02:13:27.257Z,85.33
2024-01-15T02:15:58.077Z,85.20
2024-01-15T02:18:26.187Z,85.37
2024-01-15T02:20:54.257Z,85.42
2024-01-15T02:23:22.087Z,85.42
2024-01-15T02:25:50.447Z,85.52
2024-01-15T02:28:19.467Z,85.42
2024-01-15T02:30:47.556Z,85.49
2024-01-15T02:33:15.651Z,85.15
2024-01-15T02:35:43.645Z,85.08
2024-01-15T02:38:11.434Z,85.00
2024-01-15T02:40:40.974Z,84.79
2024-01-15T02:43:09.320Z,84.52
2024-01-15T02:45:37.271Z,84.52
2024-01-15T02:48:05.699Z,84.58
2024-01-15T02:50:33.547Z,84.93
2024-01-15T02:53:01.471Z,84.97
2024-01-15T02:55:30.846Z,85.07
2024-01-15T02:57:58.729Z,85.34
2024-01-15T03:00:26.782Z,85.66
2024-01-15T03:02:55.174Z,85.68
2024-01-15T03:05:23.006Z,85.75
2024-01-15T03:07:50.881Z,85.55
2024-01-15T03:10:18.832Z,85.47
2024-01-15T03:12:46.826Z,85.30
2024-01-15T03:15:14.832Z,85.03
2024-01-15T03:17:44.416Z,85.15
2024-01-15T03:20:12.980Z,84.99
2024-01-15T03:22:40.810Z,85.22
2024-01-15T03:25:09.390Z,84.87
2024-01-15T03:27:37.553Z,84.71
2024-01-15T03:30:05.860Z,84.68
2024-01-15T03:32:35.238Z,84.89
2024-01-15T03:35:03.197Z,84.86
2024-01-15T03:37:30.997Z,84.86
2024-01-15T03:39:58.896Z,84.76
2024-01-15T03:42:27.634Z,84.73
2024-01-15T03:44:55.549Z,84.71
2024-01-15T03:47:23.581Z,84.89
2024-01-15T03:49:51.678Z,84.97
2024-01-15T03:52:19.507Z,84.98
2024-01-15T03:54:47.482Z,84.79
2024-01-15T03:57:15.537Z,84.63
2024-01-15T03:59:43.616Z,84.68
2024-01-15T04:02:11.426Z,85.15
2024-01-15T04:04:43.416Z,84.98
2024-01-15T04:07:12.385Z,84.98
2024-01-15T04:09:40.425Z,85.12
2024-01-15T04:12:08.608Z,85.72
2024-01-15T04:14:36.575Z,85.59
2024-01-15T04:17:04.446Z,85.54
2024-01-15T04:19:32.328Z,85.36
2024-01-15T04:22:00.144Z,85.40
2024-01-15T04:24:27.852Z,85.42
2024-01-15T04:26:56.386Z,85.30
2024-01-15T04:29:24.303Z,85.32
2024-01-15T04:31:52.946Z,85.51
2024-01-15T04:34:20.989Z,85.24
2024-01-15T04:36:49.123Z,85.12
2024-01-15T04:39:17.131Z,84.79
2024-01-15T04:41:45.025Z,84.59
2024-01-15T04:44:12.920Z,84.75
2024-01-15T04:46:40.800Z,84.68
2024-01-15T04:49:09.058Z,84.52
2024-01-15T04:51:37.052Z,84.29
2024-01-15T04:54:05.274Z,84.32
2024-01-15T04:56:33.109Z,84.31
2024-01-15T04:59:00.843Z,84.30
2024-01-15T05:01:32.715Z,84.65
2024-01-15T05:04:01.067Z,84.46
2024-01-15T05:06:29.234Z,84.44
2024-01-15T05:08:57.026Z,84.15
2024-01-15T05:11:25.609Z,84.00
2024-01-15T05:13:53.617Z,84.07
2024-01-15T05:16:21.538Z,84.18
2024-01-15T05:18:49.627Z,84.19
2024-01-15T05:21:17.587Z,84.03
2024-01-15T05:23:45.683Z,84.21
2024-01-15T05:26:13.830Z,84.11
2024-01-15T05:28:46.258Z,84.10
2024-01-15T05:31:14.552Z,83.96
2024-01-15T05:33:42.543Z,83.99
2024-01-15T05:36:10.492Z,84.09
2024-01-15T05:38:38.502Z,84.15
2024-01-15T05:41:07.289Z,84.01
2024-01-15T05:43:35.590Z,84.06
2024-01-15T05:46:04.384Z,84.54
2024-01-15T05:48:32.434Z,84.32
2024-01-15T05:51:00.457Z,84.16
2024-01-15T05:53:28.300Z,83.77
2024-01-15T05:55:57.235Z,83.82
2024-01-15T05:58:25.233Z,84.36
2024-01-15T06:00:53.009Z,84.24
2024-01-15T06:03:21.143Z,84.37
2024-01-15T06:05:48.965Z,84.30
2024-01-15T06:08:16.999Z,84.08
2024-01-15T06:10:44.944Z,83.98
2024-01-15T06:13:12.754Z,83.86
2024-01-15T06:15:40.589Z,84.34
2024-01-15T06:18:08.721Z,84.05
2024-01-15T06:20:36.945Z,83.77
2024-01-15T06:23:05.121Z,83.93
2024-01-15T06:25:33.046Z,83.96
2024-01-15T06:28:00.999Z,83.54
2024-01-15T06:30:29.131Z,83.57
2024-01-15T06:32:57.002Z,83.70
2024-01-15T06:35:25.129Z,83.53
2024-01-15T06:37:53.076Z,83.48
2024-01-15T06:40:21.247Z,83.56
2024-01-15T06:42:49.065Z,83.45
2024-01-15T06:45:17.355Z,83.45
2024-01-15T06:47:45.452Z,83.42
2024-01-15T06:50:13.181Z,83.64
2024-01-15T06:52:41.211Z,83.75
2024-01-15T06:55:09.496Z,83.58
2024-01-15T06:57:37.251Z,83.83
2024-01-15T07:00:09.169Z,83.63
2024-01-15T07:02:37.258Z,83.57
2024-01-15T07:05:06.524Z,83.72
2024-01-15T07:07:34.464Z,83.79
2024-01-15T07:10:02.505Z,83.62
2024-01-15T07:12:30.936Z,83.43
2024-01-15T07:14:58.956Z,83.29
2024-01-15T07:17:26.787Z,83.41
2024-01-15T07:19:58.143Z,83.42
2024-01-15T07:22:26.155Z,83.53
2024-01-15T07:24:54.095Z,83.46
2024-01-15T07:27:22.326Z,83.81
2024-01-15T07:29:50.241Z,84.04
2024-01-15T07:32:18.255Z,84.17
2024-01-15T07:34:46.401Z,84.06
2024-01-15T07:37:14.285Z,83.89
2024-01-15T07:39:43.758Z,83.87
2024-01-15T07:42:13.017Z,83.78
2024-01-15T07:44:40.986Z,83.59
2024-01-15T07:47:10.716Z,83.63
2024-01-15T07:49:38.560Z,83.66
2024-01-15T07:52:06.630Z,83.39
2024-01-15T07:54:34.449Z,83.49
2024-01-15T07:57:06.791Z,83.20
2024-01-15T07:59:35.908Z,83.19
2024-01-15T08:02:04.202Z,83.34
2024-01-15T08:04:32.327Z,83.04
2024-01-15T08:07:00.305Z,83.37
2024-01-15T08:09:28.140Z,83.38
2024-01-15T08:11:56.089Z,83.20
2024-01-15T08:14:24.049Z,83.22
2024-01-15T08:16:52.016Z,83.28
2024-01-15T08:19:21.281Z,83.65
2024-01-15T08:21:49.436Z,84.03
2024-01-15T08:24:18.211Z,83.65
2024-01-15T08:26:46.584Z,83.54
2024-01-15T08:29:14.754Z,83.56
2024-01-15T08:31:42.782Z,83.80
2024-01-15T08:34:10.870Z,84.14
2024-01-15T08:36:39.165Z,84.19
2024-01-15T08:39:07.483Z,84.30
2024-01-15T08:41:35.917Z,84.20
2024-01-15T08:44:07.084Z,84.68
2024-01-15T08:46:35.056Z,84.91
2024-01-15T08:49:04.651Z,84.41
2024-01-15T08:51:32.761Z,84.39
2024-01-15T08:54:00.608Z,84.40
2024-01-15T08:56:28.668Z,84.57
2024-01-15T08:58:56.937Z,84.69
2024-01-15T09:01:25.249Z,84.41
2024-01-15T09:03:53.199Z,84.47
2024-01-15T09:06:22.149Z,84.34
2024-01-15T09:08:50.691Z,84.27
2024-01-15T09:11:18.521Z,84.35
2024-01-15T09:13:46.509Z,84.25
2024-01-15T09:16:14.391Z,84.38
2024-01-15T09:18:42.428Z,84.44
2024-01-15T09:21:10.429Z,84.51
2024-01-15T09:23:39.207Z,84.98
2024-01-15T09:26:09.125Z,84.82
2024-01-15T09:28:36.976Z,85.03
2024-01-15T09:31:04.937Z,84.89
2024-01-15T09:33:32.932Z,85.06
2024-01-15T09:36:05.167Z,85.22
2024-01-15T09:38:33.130Z,85.22
2024-01-15T09:41:00.985Z,85.37
2024-01-15T09:43:28.754Z,85.30
2024-01-15T09:45:57.455Z,85.05
2024-01-15T09:48:25.490Z,85.55
2024-01-15T09:50:57.968Z,85.43
2024-01-15T09:53:27.438Z,85.23
2024-01-15T09:55:55.306Z,84.96
2024-01-15T09:58:23.692Z,85.17
2024-01-15T10:00:52.424Z,84.98
2024-01-15T10:03:20.301Z,84.86
2024-01-15T10:05:49.400Z,85.03
2024-01-15T10:08:17.644Z,84.73
2024-01-15T10:10:45.522Z,84.32
2024-01-15T10:13:14.260Z,84.10
2024-01-15T10:15:44.095Z,84.18
2024-01-15T10:18:12.184Z,84.01
2024-01-15T10:20:41.242Z,84.07
2024-01-15T10:23:09.205Z,84.13
2024-01-15T10:25:37.623Z,83.78
2024-01-15T10:28:06.748Z,83.52
2024-01-15T10:30:35.697Z,83.99
2024-01-15T10:33:06.627Z,84.04
2024-01-15T10:35:38.094Z,83.74
2024-01-15T10:38:07.438Z,83.12
2024-01-15T10:40:35.155Z,82.53
2024-01-15T10:43:03.173Z,82.31
2024-01-15T10:45:31.655Z,82.31
2024-01-15T10:48:03.960Z,81.99
2024-01-15T10:50:33.217Z,81.93
2024-01-15T10:53:01.283Z,81.14
2024-01-15T10:55:30.399Z,81.36
2024-01-15T10:57:59.834Z,81.32
2024-01-15T11:00:29.146Z,81.59
2024-01-15T11:02:58.130Z,81.36
2024-01-15T11:05:26.831Z,81.79
2024-01-15T11:07:58.068Z,82.01
2024-01-15T11:10:50.667Z,81.55
2024-01-15T11:13:26.337Z,81.26
2024-01-15T11:16:01.926Z,81.44
2024-01-15T11:18:32.551Z,81.00
2024-01-15T11:21:19.278Z,80.21
2024-01-15T11:23:52.686Z,79.77
2024-01-15T11:26:38.413Z,80.44
2024-01-15T11:29:35.744Z,80.59
2024-01-15T11:32:13.030Z,80.16
2024-01-15T11:35:04.564Z,79.49
2024-01-15T11:37:53.015Z,79.41
2024-01-15T11:40:23.679Z,79.45
2024-01-15T11:42:53.932Z,78.97
2024-01-15T11:45:23.095Z,79.93
2024-01-15T11:48:17.705Z,79.64
2024-01-15T11:50:56.545Z,79.54
2024-01-15T11:53:49.605Z,78.91
2024-01-15T11:56:18.760Z,78.08
2024-01-15T11:58:47.103Z,77.35
2024-01-15T12:01:15.463Z,77.23
2024-01-15T12:03:43.644Z,76.91
2024-01-15T12:06:12.808Z,76.65
2024-01-15T12:08:40.687Z,76.58
2024-01-15T12:11:17.033Z,77.07
2024-01-15T12:13:45.084Z,77.38
2024-01-15T12:16:13.906Z,77.58
2024-01-15T12:18:43.748Z,77.26
2024-01-15T12:21:11.902Z,78.22
2024-01-15T12:23:40.571Z,78.90
2024-01-15T12:26:08.549Z,79.52
2024-01-15T12:28:37.727Z,80.36
2024-01-15T12:31:06.869Z,81.55
2024-01-15T12:33:35.408Z,81.33
2024-01-15T12:36:03.305Z,80.81
2024-01-15T12:38:31.152Z,80.96
2024-01-15T12:40:58.949Z,81.52
2024-01-15T12:43:27.130Z,81.48
2024-01-15T12:45:55.592Z,81.73
2024-01-15T12:48:23.883Z,82.20
2024-01-15T12:50:54.473Z,82.69
2024-01-15T12:53:22.705Z,82.98
2024-01-15T12:55:50.429Z,83.20
2024-01-15T12:58:20.151Z,83.33
2024-01-15T13:00:49.005Z,83.95
2024-01-15T13:03:17.103Z,84.49
2024-01-15T13:05:46.975Z,84.42
2024-01-15T13:08:15.325Z,84.44
2024-01-15T13:10:43.540Z,85.27
2024-01-15T13:13:11.610Z,84.72
2024-01-15T13:15:39.524Z,84.25
2024-01-15T13:18:07.901Z,84.21
2024-01-15T13:20:36.472Z,84.00
2024-01-15T13:23:05.256Z,83.63
2024-01-15T13:25:34.997Z,83.45
2024-01-15T13:28:04.102Z,83.44
2024-01-15T13:30:32.638Z,83.12
2024-01-15T13:33:05.627Z,83.39
2024-01-15T13:35:37.810Z,83.33
2024-01-15T13:38:05.786Z,83.48
2024-01-15T13:40:33.761Z,83.48
2024-01-15T13:43:01.720Z,83.24
2024-01-15T13:45:29.678Z,83.17
2024-01-15T13:47:57.760Z,83.59
2024-01-15T13:50:29.065Z,83.48
2024-01-15T13:52:56.868Z,83.73
2024-01-15T13:55:25.260Z,83.53
2024-01-15T13:57:53.133Z,83.81
2024-01-15T14:00:24.980Z,84.16
2024-01-15T14:02:52.996Z,83.97
2024-01-15T14:05:21.500Z,83.96
2024-01-15T14:07:49.335Z,84.22
2024-01-15T14:10:17.335Z,83.85
2024-01-15T14:12:45.279Z,84.14
2024-01-15T14:15:13.101Z,84.36
2024-01-15T14:17:41.165Z,83.77
2024-01-15T14:20:11.067Z,83.77
2024-01-15T14:22:39.088Z,83.86
2024-01-15T14:25:07.863Z,83.38
2024-01-15T14:27:36.055Z,83.32
2024-01-15T14:30:04.741Z,83.03
2024-01-15T14:32:32.610Z,82.89
2024-01-15T14:35:01.551Z,82.52
2024-01-15T14:37:29.324Z,81.99
2024-01-15T14:39:57.357Z,82.24
2024-01-15T14:42:25.663Z,82.69
2024-01-15T14:44:53.817Z,82.84
2024-01-15T14:47:25.710Z,83.35
2024-01-15T14:49:53.753Z,83.84
2024-01-15T14:52:21.567Z,83.09
2024-01-15T14:54:49.697Z,83.26
2024-01-15T14:57:17.617Z,83.34
2024-01-15T14:59:45.482Z,83.44
2024-01-15T15:02:15.261Z,83.26
2024-01-15T15:04:45.689Z,83.59
2024-01-15T15:07:15.399Z,83.41
2024-01-15T15:09:44.393Z,83.23
2024-01-15T15:12:12.216Z,83.01
2024-01-15T15:14:48.670Z,82.96
2024-01-15T15:17:24.274Z,83.11
2024-01-15T15:19:57.984Z,83.22
2024-01-15T15:22:26.267Z,83.24
2024-01-15T15:24:54.513Z,83.34
2024-01-15T15:27:23.057Z,83.77
2024-01-15T15:29:52.269Z,83.81
2024-01-15T15:32:20.247Z,83.59
2024-01-15T15:34:48.343Z,83.12
2024-01-15T15:37:18.341Z,83.52
2024-01-15T15:39:46.480Z,83.16
2024-01-15T15:42:15.249Z,83.51
2024-01-15T15:44:48.571Z,83.64
2024-01-15T15:47:16.518Z,83.49
2024-01-15T15:49:44.711Z,83.28
2024-01-15T15:52:12.976Z,83.30
2024-01-15T15:54:41.162Z,83.24
2024-01-15T15:57:09.957Z,83.37
2024-01-15T15:59:37.705Z,83.32
2024-01-15T16:02:05.472Z,83.32
2024-01-15T16:04:33.488Z,82.96
2024-01-15T16:07:02.690Z,83.36
2024-01-15T16:09:30.933Z,83.74
2024-01-15T16:11:59.213Z,83.27
2024-01-15T16:14:27.000Z,83.13
2024-01-15T16:23:13.604Z,83.20
2024-01-15T16:23:27.089Z,83.72
2024-01-15T16:23:42.585Z,83.54
2024-01-15T16:25:22.796Z,83.61
2024-01-15T16:27:50.885Z,83.17
2024-01-15T16:30:25.881Z,83.43
2024-01-15T16:33:01.251Z,83.52
2024-01-15T16:35:29.417Z,84.04
2024-01-15T16:37:57.722Z,83.93
2024-01-15T16:40:26.318Z,83.48
2024-01-15T16:42:54.945Z,83.41
2024-01-15T16:45:26.039Z,83.16
2024-01-15T16:47:54.094Z,83.23
2024-01-15T16:50:22.018Z,83.32
2024-01-15T16:52:49.720Z,83.64
2024-01-15T16:55:18.416Z,83.44
2024-01-15T16:57:46.569Z,83.72
2024-01-15T17:00:14.849Z,83.52
2024-01-15T17:02:43.564Z,83.45
2024-01-15T17:05:12.928Z,83.27
2024-01-15T17:07:41.371Z,83.83
2024-01-15T17:10:09.508Z,83.97
2024-01-15T17:12:37.342Z,83.84
2024-01-15T17:15:05.872Z,83.92
2024-01-15T17:17:34.134Z,83.92
2024-01-15T17:20:02.032Z,83.52
2024-01-15T17:22:30.428Z,83.43
2024-01-15T17:24:59.315Z,84.36
2024-01-15T17:27:27.026Z,83.97
2024-01-15T17:29:56.998Z,84.08
2024-01-15T17:32:25.794Z,84.46
2024-01-15T17:34:54.756Z,84.20
2024-01-15T17:37:22.704Z,84.50
2024-01-15T17:39:54.187Z,85.00
2024-01-15T17:42:21.910Z,84.61
2024-01-15T17:44:49.831Z,84.45
2024-01-15T17:47:17.752Z,84.56
2024-01-15T17:49:45.546Z,84.45
2024-01-15T17:52:13.519Z,84.67
2024-01-15T17:54:41.537Z,84.64
2024-01-15T17:57:09.795Z,84.36
2024-01-15T17:59:37.643Z,84.15
2024-01-15T18:02:06.379Z,84.29
2024-01-15T18:04:34.190Z,84.05
2024-01-15T18:07:03.109Z,84.32
2024-01-15T18:09:30.921Z,84.46
2024-01-15T18:12:01.865Z,84.19
2024-01-15T18:14:30.343Z,84.58
2024-01-15T18:16:58.426Z,84.11
2024-01-15T18:19:26.821Z,84.15
2024-01-15T18:21:57.442Z,84.16
2024-01-15T18:24:28.417Z,84.42
2024-01-15T18:26:56.583Z,84.21
2024-01-15T18:29:25.258Z,84.62
2024-01-15T18:31:53.575Z,84.48
2024-01-15T18:34:21.705Z,84.32
2024-01-15T18:36:50.126Z,84.51
2024-01-15T18:39:18.793Z,84.52
2024-01-15T18:41:46.941Z,84.37
2024-01-15T18:44:14.864Z,84.18
2024-01-15T18:46:45.040Z,84.28
2024-01-15T18:49:13.377Z,84.30
2024-01-15T18:51:41.572Z,84.03
2024-01-15T18:54:09.511Z,83.82
2024-01-15T18:56:42.608Z,84.13
2024-01-15T18:59:10.985Z,84.37
2024-01-15T19:01:41.103Z,84.25
2024-01-15T19:04:11.639Z,84.19
2024-01-15T19:06:43.561Z,84.38
2024-01-15T19:09:12.314Z,84.14
2024-01-15T19:11:40.274Z,84.10
2024-01-15T19:14:08.457Z,84.18
2024-01-15T19:16:36.429Z,84.23
2024-01-15T19:19:04.602Z,84.51
2024-01-15T19:21:32.486Z,84.06
2024-01-15T19:24:00.458Z,84.04
2024-01-15T19:26:28.515Z,84.43
2024-01-15T19:28:57.722Z,84.28
2024-01-15T19:31:25.735Z,84.33
2024-01-15T19:33:53.878Z,84.24
2024-01-15T19:36:27.665Z,84.16
2024-01-15T19:38:55.810Z,83.89
2024-01-15T19:41:23.851Z,83.63
2024-01-15T19:43:51.989Z,83.50
2024-01-15T19:46:19.831Z,83.61
2024-01-15T19:48:47.848Z,83.53
2024-01-15T19:51:16.750Z,83.53
2024-01-15T19:53:44.986Z,83.55
2024-01-15T19:56:18.348Z,83.36
2024-01-15T19:58:46.332Z,83.09
2024-01-15T20:01:14.511Z,83.13
2024-01-15T20:03:44.135Z,83.30
2024-01-15T20:06:16.143Z,83.55
2024-01-15T20:08:45.995Z,83.62
2024-01-15T20:11:15.565Z,84.13
2024-01-15T20:13:44.147Z,83.60
2024-01-15T20:16:14.031Z,83.28
2024-01-15T20:18:43.720Z,83.37
2024-01-15T20:21:11.949Z,83.82
2024-01-15T20:23:50.547Z,83.88
2024-01-15T20:26:23.838Z,83.92
2024-01-15T20:28:52.287Z,83.52
2024-01-15T20:31:20.211Z,83.72
2024-01-15T20:33:49.290Z,83.59
2024-01-15T20:36:17.357Z,84.08
2024-01-15T20:38:45.345Z,83.99
2024-01-15T20:41:13.451Z,83.67
2024-01-15T20:43:41.895Z,83.68
2024-01-15T20:46:09.799Z,84.25
2024-01-15T20:48:37.604Z,84.26
2024-01-15T20:51:06.323Z,84.11
2024-01-15T20:53:34.386Z,84.44
2024-01-15T20:56:02.324Z,84.26
2024-01-15T20:58:30.221Z,84.03
2024-01-15T21:00:58.026Z,84.06
2024-01-15T21:03:26.424Z,84.08
2024-01-15T21:05:54.521Z,83.76
2024-01-15T21:08:22.679Z,84.13
2024-01-15T21:10:50.690Z,84.01
2024-01-15T21:13:19.146Z,84.24
2024-01-15T21:15:47.939Z,84.08
2024-01-15T21:18:18.162Z,83.80
2024-01-15T21:20:47.062Z,83.80
2024-01-15T21:23:15.097Z,83.53
2024-01-15T21:25:42.955Z,83.38
2024-01-15T21:28:11.413Z,83.21
2024-01-15T21:30:39.233Z,83.31
2024-01-15T21:33:08.832Z,83.26
2024-01-15T21:35:37.020Z,83.28
2024-01-15T21:38:05.368Z,83.02
2024-01-15T21:40:33.699Z,83.12
2024-01-15T21:43:01.482Z,82.80
2024-01-15T21:45:29.301Z,82.14
2024-01-15T21:47:57.183Z,82.43
2024-01-15T21:50:25.427Z,82.74
2024-01-15T21:52:53.335Z,82.58
2024-01-15T21:55:21.378Z,82.79
2024-01-15T21:57:49.316Z,82.28
2024-01-15T22:00:17.878Z,82.48
2024-01-15T22:02:46.815Z,82.60
2024-01-15T22:05:15.229Z,82.75
2024-01-15T22:07:44.860Z,82.66
2024-01-15T22:10:13.209Z,82.75
2024-01-15T22:12:42.413Z,82.67
2024-01-15T22:15:10.667Z,82.29
2024-01-15T22:17:39.064Z,82.56
2024-01-15T22:20:08.620Z,82.41
2024-01-15T22:22:36.491Z,82.81
2024-01-15T22:25:04.604Z,82.96
2024-01-15T22:27:32.617Z,83.24
2024-01-15T22:30:00.716Z,83.69
2024-01-15T22:32:31.826Z,83.37
2024-01-15T22:35:00.484Z,83.41
2024-01-15T22:37:28.345Z,83.34
2024-01-15T22:39:56.370Z,83.70
2024-01-15T22:42:24.470Z,83.64
2024-01-15T22:44:52.933Z,83.49
2024-01-15T22:47:21.827Z,83.36
2024-01-15T22:49:49.688Z,83.06
2024-01-15T22:52:17.503Z,83.01
2024-01-15T22:54:45.348Z,82.78
2024-01-15T22:57:13.259Z,83.09
2024-01-15T22:59:41.035Z,82.86
2024-01-15T23:02:08.907Z,82.59
2024-01-15T23:04:38.758Z,82.63
2024-01-15T23:07:06.975Z,82.69
2024-01-15T23:09:34.753Z,82.36
2024-01-15T23:12:02.673Z,81.56
2024-01-15T23:14:30.431Z,81.74
2024-01-15T23:16:58.371Z,81.58
2024-01-15T23:19:26.339Z,81.62
2024-01-15T23:21:57.600Z,81.88
2024-01-15T23:24:25.561Z,82.20
2024-01-15T23:26:54.124Z,83.29
2024-01-15T23:29:22.020Z,83.13
2024-01-15T23:31:49.806Z,82.96
2024-01-15T23:34:17.638Z,83.01
2024-01-15T23:36:46.171Z,83.25
2024-01-15T23:39:14.396Z,83.10
2024-01-15T23:41:42.470Z,83.19
2024-01-15T23:44:10.551Z,82.70
2024-01-15T23:46:38.502Z,82.99
2024-01-15T23:49:06.608Z,83.00
2024-01-15T23:51:49.918Z,82.98
2024-01-15T23:54:18.981Z,82.69
2024-01-15T23:56:47.026Z,81.60
2024-01-15T23:59:16.094Z,82.01
